Rockdale, Texas
Current Conditions -  °F | °C
As of 12:35 PM on Thursday 30 Oct 2014 (Local Time) from KT35 Reporting Station
Overcast Overcast  
Wind Chill: 72°   Ceiling: 4600
Heat Index: 72°   Visibility: 10mi
Dew Point: 51°   Wind: 3mph
Humidity: 48%   Direction: 120°ESE
Pressure: 30.16"   Gusts: NA
Location:  30.66°N, 97°W
Report Text: KT35 301735Z AUTO 12003KT 10SM BKN046 OVC050 22/11 A3016 RMK AO2 T02210106
Loading
Personal Weather Stations






























Interactive Weather Map
Tropical Storm Tracking
New forecast layout! Learn more

10-Day Weather Forecast

Advertisements
Track Severe Weather on mobile